sensor_id;sensor_type;location;lat;lon;timestamp;temperature;humidity
652;DHT22;310;48.490;9.200;2022-12-19T00:01:06;2.60;41.50
652;DHT22;310;48.490;9.200;2022-12-19T00:03:31;2.70;41.10
652;DHT22;310;48.490;9.200;2022-12-19T00:06:02;2.50;41.40
652;DHT22;310;48.490;9.200;2022-12-19T00:08:28;2.70;41.80
652;DHT22;310;48.490;9.200;2022-12-19T00:10:58;2.90;41.00
652;DHT22;310;48.490;9.200;2022-12-19T00:13:24;2.90;41.00
652;DHT22;310;48.490;9.200;2022-12-19T00:15:50;1.90;43.70
652;DHT22;310;48.490;9.200;2022-12-19T00:18:16;2.00;44.00
652;DHT22;310;48.490;9.200;2022-12-19T00:20:42;1.70;45.20
652;DHT22;310;48.490;9.200;2022-12-19T00:23:07;1.80;45.70
652;DHT22;310;48.490;9.200;2022-12-19T00:25:33;1.80;46.10
652;DHT22;310;48.490;9.200;2022-12-19T00:27:58;2.30;44.70
652;DHT22;310;48.490;9.200;2022-12-19T00:30:24;2.70;43.20
652;DHT22;310;48.490;9.200;2022-12-19T00:32:50;2.80;43.00
652;DHT22;310;48.490;9.200;2022-12-19T00:35:15;3.00;42.20
652;DHT22;310;48.490;9.200;2022-12-19T00:37:41;3.20;41.40
652;DHT22;310;48.490;9.200;2022-12-19T00:40:07;3.30;41.30
652;DHT22;310;48.490;9.200;2022-12-19T00:42:33;3.40;40.80
652;DHT22;310;48.490;9.200;2022-12-19T00:44:58;3.40;41.00
652;DHT22;310;48.490;9.200;2022-12-19T00:47:27;3.30;41.00
652;DHT22;310;48.490;9.200;2022-12-19T00:49:52;3.10;41.40
652;DHT22;310;48.490;9.200;2022-12-19T00:52:18;3.20;41.50
652;DHT22;310;48.490;9.200;2022-12-19T00:54:44;3.20;41.30
652;DHT22;310;48.490;9.200;2022-12-19T00:57:09;2.90;42.40
652;DHT22;310;48.490;9.200;2022-12-19T00:59:35;2.90;41.90
652;DHT22;310;48.490;9.200;2022-12-19T01:02:00;2.80;42.90
652;DHT22;310;48.490;9.200;2022-12-19T01:04:26;3.00;42.80
652;DHT22;310;48.490;9.200;2022-12-19T01:06:51;3.20;42.10
652;DHT22;310;48.490;9.200;2022-12-19T01:09:17;3.40;40.90
652;DHT22;310;48.490;9.200;2022-12-19T01:11:43;3.50;40.70
652;DHT22;310;48.490;9.200;2022-12-19T01:14:27;3.00;41.90
652;DHT22;310;48.490;9.200;2022-12-19T01:16:53;3.20;41.50
652;DHT22;310;48.490;9.200;2022-12-19T01:19:19;3.30;41.50
652;DHT22;310;48.490;9.200;2022-12-19T01:21:44;3.10;41.70
652;DHT22;310;48.490;9.200;2022-12-19T01:24:10;3.30;41.80
652;DHT22;310;48.490;9.200;2022-12-19T01:26:36;3.30;41.50
652;DHT22;310;48.490;9.200;2022-12-19T01:29:02;3.50;42.30
652;DHT22;310;48.490;9.200;2022-12-19T01:31:28;3.50;41.30
652;DHT22;310;48.490;9.200;2022-12-19T01:33:54;3.60;41.30
652;DHT22;310;48.490;9.200;2022-12-19T01:36:19;3.70;41.20
652;DHT22;310;48.490;9.200;2022-12-19T01:38:45;3.50;41.70
652;DHT22;310;48.490;9.200;2022-12-19T01:41:11;3.50;42.00
652;DHT22;310;48.490;9.200;2022-12-19T01:43:55;3.60;41.80
652;DHT22;310;48.490;9.200;2022-12-19T01:46:26;3.70;41.50
652;DHT22;310;48.490;9.200;2022-12-19T01:48:54;3.70;41.90
652;DHT22;310;48.490;9.200;2022-12-19T01:51:23;3.90;41.20
652;DHT22;310;48.490;9.200;2022-12-19T01:56:27;4.00;41.20
652;DHT22;310;48.490;9.200;2022-12-19T01:58:55;4.00;41.10
652;DHT22;310;48.490;9.200;2022-12-19T02:01:22;3.90;41.20
652;DHT22;310;48.490;9.200;2022-12-19T02:03:49;3.50;42.40
652;DHT22;310;48.490;9.200;2022-12-19T02:06:16;3.20;43.70
652;DHT22;310;48.490;9.200;2022-12-19T02:08:45;2.90;44.90
652;DHT22;310;48.490;9.200;2022-12-19T02:11:11;2.80;45.50
652;DHT22;310;48.490;9.200;2022-12-19T02:13:37;2.70;45.90
652;DHT22;310;48.490;9.200;2022-12-19T02:27:49;1.90;48.60
652;DHT22;310;48.490;9.200;2022-12-19T02:34:23;2.50;46.20
652;DHT22;310;48.490;9.200;2022-12-19T02:36:31;2.60;46.20
652;DHT22;310;48.490;9.200;2022-12-19T02:39:15;2.80;45.60
652;DHT22;310;48.490;9.200;2022-12-19T02:41:53;2.70;45.50
652;DHT22;310;48.490;9.200;2022-12-19T02:44:38;2.40;46.90
652;DHT22;310;48.490;9.200;2022-12-19T02:47:06;2.10;47.40
652;DHT22;310;48.490;9.200;2022-12-19T02:49:34;2.10;48.30
652;DHT22;310;48.490;9.200;2022-12-19T02:52:12;2.30;48.20
652;DHT22;310;48.490;9.200;2022-12-19T02:55:05;2.40;47.90
652;DHT22;310;48.490;9.200;2022-12-19T03:06:03;3.70;43.10
652;DHT22;310;48.490;9.200;2022-12-19T03:08:54;3.80;42.40
652;DHT22;310;48.490;9.200;2022-12-19T03:11:28;3.70;42.40
652;DHT22;310;48.490;9.200;2022-12-19T03:14:01;3.20;44.20
652;DHT22;310;48.490;9.200;2022-12-19T03:16:28;2.50;46.00
652;DHT22;310;48.490;9.200;2022-12-19T03:18:54;1.70;50.70
652;DHT22;310;48.490;9.200;2022-12-19T03:21:22;1.90;51.50
652;DHT22;310;48.490;9.200;2022-12-19T03:23:52;2.60;48.60
652;DHT22;310;48.490;9.200;2022-12-19T03:26:20;3.00;46.90
652;DHT22;310;48.490;9.200;2022-12-19T03:28:50;3.10;45.50
652;DHT22;310;48.490;9.200;2022-12-19T03:31:20;3.10;45.60
652;DHT22;310;48.490;9.200;2022-12-19T03:33:48;2.90;46.50
652;DHT22;310;48.490;9.200;2022-12-19T03:36:18;2.80;47.20
652;DHT22;310;48.490;9.200;2022-12-19T03:38:46;3.20;46.30
652;DHT22;310;48.490;9.200;2022-12-19T03:41:13;3.50;44.90
652;DHT22;310;48.490;9.200;2022-12-19T03:43:42;3.70;44.10
652;DHT22;310;48.490;9.200;2022-12-19T03:46:25;3.90;43.70
652;DHT22;310;48.490;9.200;2022-12-19T03:48:53;4.10;43.10
652;DHT22;310;48.490;9.200;2022-12-19T03:56:31;4.40;41.30
652;DHT22;310;48.490;9.200;2022-12-19T03:59:12;4.20;42.80
652;DHT22;310;48.490;9.200;2022-12-19T04:01:40;4.40;42.30
652;DHT22;310;48.490;9.200;2022-12-19T04:04:07;4.50;42.40
652;DHT22;310;48.490;9.200;2022-12-19T04:06:34;4.80;41.50
652;DHT22;310;48.490;9.200;2022-12-19T04:09:00;4.60;43.00
652;DHT22;310;48.490;9.200;2022-12-19T04:11:33;4.90;41.80
652;DHT22;310;48.490;9.200;2022-12-19T04:14:07;4.90;42.00
652;DHT22;310;48.490;9.200;2022-12-19T04:19:35;4.60;43.00
652;DHT22;310;48.490;9.200;2022-12-19T04:22:08;4.80;43.40
652;DHT22;310;48.490;9.200;2022-12-19T04:24:38;4.90;43.50
652;DHT22;310;48.490;9.200;2022-12-19T04:27:05;4.70;44.30
652;DHT22;310;48.490;9.200;2022-12-19T04:29:34;4.80;44.50
652;DHT22;310;48.490;9.200;2022-12-19T04:32:02;4.70;44.40
652;DHT22;310;48.490;9.200;2022-12-19T04:34:28;5.00;43.60
652;DHT22;310;48.490;9.200;2022-12-19T04:36:53;5.00;43.30
652;DHT22;310;48.490;9.200;2022-12-19T04:39:19;4.90;43.10
652;DHT22;310;48.490;9.200;2022-12-19T04:41:45;4.40;44.70
652;DHT22;310;48.490;9.200;2022-12-19T04:44:10;4.60;44.90
652;DHT22;310;48.490;9.200;2022-12-19T04:46:36;5.00;44.50
652;DHT22;310;48.490;9.200;2022-12-19T04:49:02;5.00;43.70
652;DHT22;310;48.490;9.200;2022-12-19T04:51:27;5.10;44.10
652;DHT22;310;48.490;9.200;2022-12-19T04:53:53;4.90;44.70
652;DHT22;310;48.490;9.200;2022-12-19T04:56:18;4.40;45.50
652;DHT22;310;48.490;9.200;2022-12-19T04:58:44;3.60;50.00
652;DHT22;310;48.490;9.200;2022-12-19T05:01:10;3.90;50.00
652;DHT22;310;48.490;9.200;2022-12-19T05:03:38;4.30;47.80
652;DHT22;310;48.490;9.200;2022-12-19T05:06:09;4.80;46.40
652;DHT22;310;48.490;9.200;2022-12-19T05:08:36;5.00;45.20
652;DHT22;310;48.490;9.200;2022-12-19T05:11:04;5.40;43.60
652;DHT22;310;48.490;9.200;2022-12-19T05:13:31;5.20;43.90
652;DHT22;310;48.490;9.200;2022-12-19T05:15:57;5.20;44.20
652;DHT22;310;48.490;9.200;2022-12-19T05:18:23;5.30;44.00
652;DHT22;310;48.490;9.200;2022-12-19T05:20:49;5.20;44.10
652;DHT22;310;48.490;9.200;2022-12-19T05:23:15;5.10;44.60
652;DHT22;310;48.490;9.200;2022-12-19T05:25:41;4.70;45.00
652;DHT22;310;48.490;9.200;2022-12-19T05:28:06;4.40;47.10
652;DHT22;310;48.490;9.200;2022-12-19T05:30:32;4.10;48.20
652;DHT22;310;48.490;9.200;2022-12-19T05:32:57;4.40;47.80
652;DHT22;310;48.490;9.200;2022-12-19T05:35:23;4.70;46.00
652;DHT22;310;48.490;9.200;2022-12-19T05:37:48;4.80;46.00
652;DHT22;310;48.490;9.200;2022-12-19T05:40:14;5.10;45.30
652;DHT22;310;48.490;9.200;2022-12-19T05:42:39;5.40;44.80
652;DHT22;310;48.490;9.200;2022-12-19T05:45:05;5.30;44.50
652;DHT22;310;48.490;9.200;2022-12-19T05:47:31;4.40;47.40
652;DHT22;310;48.490;9.200;2022-12-19T05:49:57;4.00;50.50
652;DHT22;310;48.490;9.200;2022-12-19T05:52:22;3.60;51.40
652;DHT22;310;48.490;9.200;2022-12-19T05:54:49;3.40;53.00
652;DHT22;310;48.490;9.200;2022-12-19T05:57:15;3.10;55.70
652;DHT22;310;48.490;9.200;2022-12-19T05:59:41;3.00;55.80
652;DHT22;310;48.490;9.200;2022-12-19T06:02:07;3.10;56.00
652;DHT22;310;48.490;9.200;2022-12-19T06:04:33;2.90;57.90
652;DHT22;310;48.490;9.200;2022-12-19T06:07:02;3.50;55.00
652;DHT22;310;48.490;9.200;2022-12-19T06:09:28;3.80;53.00
652;DHT22;310;48.490;9.200;2022-12-19T06:11:54;4.40;50.70
652;DHT22;310;48.490;9.200;2022-12-19T06:14:19;5.00;47.90
652;DHT22;310;48.490;9.200;2022-12-19T06:16:45;4.70;47.90
652;DHT22;310;48.490;9.200;2022-12-19T06:19:11;5.00;48.00
652;DHT22;310;48.490;9.200;2022-12-19T06:21:36;5.40;46.10
652;DHT22;310;48.490;9.200;2022-12-19T06:24:02;5.60;45.80
652;DHT22;310;48.490;9.200;2022-12-19T06:26:28;5.90;44.20
652;DHT22;310;48.490;9.200;2022-12-19T06:28:54;5.90;43.80
652;DHT22;310;48.490;9.200;2022-12-19T06:31:21;6.00;43.50
652;DHT22;310;48.490;9.200;2022-12-19T06:33:47;6.00;43.50
652;DHT22;310;48.490;9.200;2022-12-19T06:36:20;6.00;43.30
652;DHT22;310;48.490;9.200;2022-12-19T06:38:46;5.90;44.40
652;DHT22;310;48.490;9.200;2022-12-19T06:41:12;5.90;44.00
652;DHT22;310;48.490;9.200;2022-12-19T06:44:01;5.90;44.50
652;DHT22;310;48.490;9.200;2022-12-19T06:46:28;5.90;44.60
652;DHT22;310;48.490;9.200;2022-12-19T06:48:53;5.60;45.10
652;DHT22;310;48.490;9.200;2022-12-19T06:51:19;5.50;45.70
652;DHT22;310;48.490;9.200;2022-12-19T06:53:45;5.50;46.70
652;DHT22;310;48.490;9.200;2022-12-19T06:56:13;5.80;45.90
652;DHT22;310;48.490;9.200;2022-12-19T06:58:39;5.70;45.80
652;DHT22;310;48.490;9.200;2022-12-19T07:01:04;5.20;47.40
652;DHT22;310;48.490;9.200;2022-12-19T07:03:40;5.20;49.00
652;DHT22;310;48.490;9.200;2022-12-19T07:06:06;5.70;47.00
652;DHT22;310;48.490;9.200;2022-12-19T07:08:32;5.90;46.00
652;DHT22;310;48.490;9.200;2022-12-19T07:10:58;5.60;45.80
652;DHT22;310;48.490;9.200;2022-12-19T07:13:24;5.40;47.00
652;DHT22;310;48.490;9.200;2022-12-19T07:15:51;5.60;47.40
652;DHT22;310;48.490;9.200;2022-12-19T07:18:17;5.70;45.80
652;DHT22;310;48.490;9.200;2022-12-19T07:20:43;5.40;46.00
652;DHT22;310;48.490;9.200;2022-12-19T07:23:11;4.40;51.60
652;DHT22;310;48.490;9.200;2022-12-19T07:25:38;4.10;54.00
652;DHT22;310;48.490;9.200;2022-12-19T07:28:05;3.90;54.90
652;DHT22;310;48.490;9.200;2022-12-19T07:30:31;4.60;52.70
652;DHT22;310;48.490;9.200;2022-12-19T07:32:57;5.30;48.90
652;DHT22;310;48.490;9.200;2022-12-19T07:35:23;5.70;48.20
652;DHT22;310;48.490;9.200;2022-12-19T07:37:50;6.00;46.10
652;DHT22;310;48.490;9.200;2022-12-19T07:40:15;6.20;45.00
652;DHT22;310;48.490;9.200;2022-12-19T07:42:42;6.20;44.70
652;DHT22;310;48.490;9.200;2022-12-19T07:45:07;6.30;44.60
652;DHT22;310;48.490;9.200;2022-12-19T07:47:33;6.20;44.90
652;DHT22;310;48.490;9.200;2022-12-19T07:49:59;6.20;45.00
652;DHT22;310;48.490;9.200;2022-12-19T07:52:26;6.20;44.90
652;DHT22;310;48.490;9.200;2022-12-19T07:54:52;6.30;44.90
652;DHT22;310;48.490;9.200;2022-12-19T07:57:18;6.30;45.00
652;DHT22;310;48.490;9.200;2022-12-19T07:59:43;6.30;45.20
652;DHT22;310;48.490;9.200;2022-12-19T08:02:09;6.40;44.80
652;DHT22;310;48.490;9.200;2022-12-19T08:04:34;6.40;44.70
652;DHT22;310;48.490;9.200;2022-12-19T08:07:00;6.30;45.20
652;DHT22;310;48.490;9.200;2022-12-19T08:09:27;6.00;46.10
652;DHT22;310;48.490;9.200;2022-12-19T08:11:53;6.00;46.10
652;DHT22;310;48.490;9.200;2022-12-19T08:14:19;6.20;45.70
652;DHT22;310;48.490;9.200;2022-12-19T08:16:45;6.40;45.30
652;DHT22;310;48.490;9.200;2022-12-19T08:19:11;6.50;45.00
652;DHT22;310;48.490;9.200;2022-12-19T08:21:36;6.80;43.70
652;DHT22;310;48.490;9.200;2022-12-19T08:24:02;6.90;43.60
652;DHT22;310;48.490;9.200;2022-12-19T08:26:28;6.60;43.90
652;DHT22;310;48.490;9.200;2022-12-19T08:28:55;6.20;45.30
652;DHT22;310;48.490;9.200;2022-12-19T08:31:23;5.90;46.00
652;DHT22;310;48.490;9.200;2022-12-19T08:33:50;6.20;46.10
652;DHT22;310;48.490;9.200;2022-12-19T08:36:16;6.70;43.60
652;DHT22;310;48.490;9.200;2022-12-19T08:38:46;6.90;42.70
652;DHT22;310;48.490;9.200;2022-12-19T08:41:13;7.10;42.60
652;DHT22;310;48.490;9.200;2022-12-19T08:43:39;7.20;42.00
652;DHT22;310;48.490;9.200;2022-12-19T08:46:05;7.10;41.90
652;DHT22;310;48.490;9.200;2022-12-19T08:48:32;7.30;41.80
652;DHT22;310;48.490;9.200;2022-12-19T08:51:00;7.50;41.00
652;DHT22;310;48.490;9.200;2022-12-19T08:53:27;7.20;41.80
652;DHT22;310;48.490;9.200;2022-12-19T08:56:00;7.60;41.00
652;DHT22;310;48.490;9.200;2022-12-19T08:58:27;7.50;41.00
652;DHT22;310;48.490;9.200;2022-12-19T09:00:53;7.50;40.70
652;DHT22;310;48.490;9.200;2022-12-19T09:03:19;7.80;40.20
652;DHT22;310;48.490;9.200;2022-12-19T09:05:45;8.00;40.60
652;DHT22;310;48.490;9.200;2022-12-19T09:08:11;7.90;40.40
652;DHT22;310;48.490;9.200;2022-12-19T09:10:37;8.30;39.00
652;DHT22;310;48.490;9.200;2022-12-19T09:13:04;8.60;38.20
652;DHT22;310;48.490;9.200;2022-12-19T09:15:29;8.40;38.70
652;DHT22;310;48.490;9.200;2022-12-19T09:17:55;8.10;39.60
652;DHT22;310;48.490;9.200;2022-12-19T09:20:21;7.80;40.40
652;DHT22;310;48.490;9.200;2022-12-19T09:22:47;7.60;41.80
652;DHT22;310;48.490;9.200;2022-12-19T09:25:13;7.90;41.00
652;DHT22;310;48.490;9.200;2022-12-19T09:27:38;8.30;39.90
652;DHT22;310;48.490;9.200;2022-12-19T09:30:05;8.20;39.70
652;DHT22;310;48.490;9.200;2022-12-19T09:32:30;8.20;39.80
652;DHT22;310;48.490;9.200;2022-12-19T09:34:56;8.30;40.10
652;DHT22;310;48.490;9.200;2022-12-19T09:37:22;7.90;41.70
652;DHT22;310;48.490;9.200;2022-12-19T09:39:47;8.20;41.20
652;DHT22;310;48.490;9.200;2022-12-19T09:42:34;8.20;41.10
652;DHT22;310;48.490;9.200;2022-12-19T09:47:54;8.60;40.00
652;DHT22;310;48.490;9.200;2022-12-19T09:53:35;8.40;40.30
652;DHT22;310;48.490;9.200;2022-12-19T09:56:04;8.20;40.70
652;DHT22;310;48.490;9.200;2022-12-19T09:58:40;8.30;40.70
652;DHT22;310;48.490;9.200;2022-12-19T10:01:16;7.90;41.30
652;DHT22;310;48.490;9.200;2022-12-19T10:03:47;7.50;42.90
652;DHT22;310;48.490;9.200;2022-12-19T10:06:20;7.20;44.80
652;DHT22;310;48.490;9.200;2022-12-19T10:08:46;7.40;43.60
652;DHT22;310;48.490;9.200;2022-12-19T10:16:26;6.70;46.70
652;DHT22;310;48.490;9.200;2022-12-19T10:19:05;7.10;45.20
652;DHT22;310;48.490;9.200;2022-12-19T10:21:37;6.80;46.80
652;DHT22;310;48.490;9.200;2022-12-19T10:27:00;6.30;47.10
652;DHT22;310;48.490;9.200;2022-12-19T10:32:35;6.30;49.10
652;DHT22;310;48.490;9.200;2022-12-19T10:35:17;6.90;46.90
652;DHT22;310;48.490;9.200;2022-12-19T10:40:41;7.90;43.40
652;DHT22;310;48.490;9.200;2022-12-19T10:45:57;8.50;41.30
652;DHT22;310;48.490;9.200;2022-12-19T10:48:24;8.70;40.60
652;DHT22;310;48.490;9.200;2022-12-19T10:50:49;8.90;40.40
652;DHT22;310;48.490;9.200;2022-12-19T10:53:25;9.10;40.30
652;DHT22;310;48.490;9.200;2022-12-19T10:55:52;9.40;39.50
652;DHT22;310;48.490;9.200;2022-12-19T10:58:24;9.50;38.50
652;DHT22;310;48.490;9.200;2022-12-19T11:03:18;9.40;38.50
652;DHT22;310;48.490;9.200;2022-12-19T11:05:55;9.50;38.60
652;DHT22;310;48.490;9.200;2022-12-19T11:08:34;9.30;38.90
652;DHT22;310;48.490;9.200;2022-12-19T11:13:47;9.80;38.80
652;DHT22;310;48.490;9.200;2022-12-19T11:16:21;9.80;37.80
652;DHT22;310;48.490;9.200;2022-12-19T11:18:48;10.10;37.20
652;DHT22;310;48.490;9.200;2022-12-19T11:21:19;10.00;37.30
652;DHT22;310;48.490;9.200;2022-12-19T11:23:51;10.00;37.30
652;DHT22;310;48.490;9.200;2022-12-19T11:26:45;10.20;37.10
652;DHT22;310;48.490;9.200;2022-12-19T11:32:00;9.70;38.90
652;DHT22;310;48.490;9.200;2022-12-19T11:34:30;9.50;39.50
652;DHT22;310;48.490;9.200;2022-12-19T11:37:29;10.00;37.80
652;DHT22;310;48.490;9.200;2022-12-19T11:40:05;10.50;36.20
652;DHT22;310;48.490;9.200;2022-12-19T11:42:43;10.30;37.50
652;DHT22;310;48.490;9.200;2022-12-19T11:49:03;9.90;38.40
652;DHT22;310;48.490;9.200;2022-12-19T11:54:35;10.50;36.70
652;DHT22;310;48.490;9.200;2022-12-19T11:57:02;11.00;35.30
652;DHT22;310;48.490;9.200;2022-12-19T11:59:33;11.10;35.60
652;DHT22;310;48.490;9.200;2022-12-19T12:07:34;11.00;34.90
652;DHT22;310;48.490;9.200;2022-12-19T12:10:19;10.90;35.10
652;DHT22;310;48.490;9.200;2022-12-19T12:16:42;10.00;37.60
652;DHT22;310;48.490;9.200;2022-12-19T12:21:24;8.90;41.30
652;DHT22;310;48.490;9.200;2022-12-19T12:24:11;8.40;42.80
652;DHT22;310;48.490;9.200;2022-12-19T12:29:34;8.90;42.00
652;DHT22;310;48.490;9.200;2022-12-19T12:37:24;10.10;37.60
652;DHT22;310;48.490;9.200;2022-12-19T12:40:18;10.10;38.10
652;DHT22;310;48.490;9.200;2022-12-19T12:45:40;11.10;36.50
652;DHT22;310;48.490;9.200;2022-12-19T12:48:26;11.40;35.00
652;DHT22;310;48.490;9.200;2022-12-19T12:50:53;11.70;34.50
652;DHT22;310;48.490;9.200;2022-12-19T12:53:26;11.90;34.10
652;DHT22;310;48.490;9.200;2022-12-19T12:55:58;12.30;33.00
652;DHT22;310;48.490;9.200;2022-12-19T13:07:49;10.60;37.20
652;DHT22;310;48.490;9.200;2022-12-19T13:09:52;10.70;37.30
652;DHT22;310;48.490;9.200;2022-12-19T13:12:25;9.50;41.80
652;DHT22;310;48.490;9.200;2022-12-19T13:30:32;10.80;37.70
652;DHT22;310;48.490;9.200;2022-12-19T13:38:31;9.50;42.00
652;DHT22;310;48.490;9.200;2022-12-19T13:43:40;9.50;42.80
652;DHT22;310;48.490;9.200;2022-12-19T13:46:33;9.80;42.10
652;DHT22;310;48.490;9.200;2022-12-19T13:51:44;10.40;39.00
652;DHT22;310;48.490;9.200;2022-12-19T13:54:36;10.30;38.80
652;DHT22;310;48.490;9.200;2022-12-19T13:57:30;10.40;38.50
652;DHT22;310;48.490;9.200;2022-12-19T14:00:08;10.40;39.00
652;DHT22;310;48.490;9.200;2022-12-19T14:02:40;10.00;39.40
652;DHT22;310;48.490;9.200;2022-12-19T14:05:36;9.90;41.60
652;DHT22;310;48.490;9.200;2022-12-19T14:08:04;9.90;40.90
652;DHT22;310;48.490;9.200;2022-12-19T14:10:32;9.90;40.90
652;DHT22;310;48.490;9.200;2022-12-19T14:13:02;9.90;41.30
652;DHT22;310;48.490;9.200;2022-12-19T14:15:47;9.80;41.50
652;DHT22;310;48.490;9.200;2022-12-19T14:18:28;9.80;41.30
652;DHT22;310;48.490;9.200;2022-12-19T14:21:14;9.50;42.30
652;DHT22;310;48.490;9.200;2022-12-19T14:23:42;8.90;44.60
652;DHT22;310;48.490;9.200;2022-12-19T14:26:24;8.10;48.90
652;DHT22;310;48.490;9.200;2022-12-19T14:29:06;9.00;45.90
652;DHT22;310;48.490;9.200;2022-12-19T14:31:35;9.20;43.60
652;DHT22;310;48.490;9.200;2022-12-19T14:34:03;8.90;44.50
652;DHT22;310;48.490;9.200;2022-12-19T14:36:31;8.20;48.00
652;DHT22;310;48.490;9.200;2022-12-19T14:38:57;8.10;47.90
652;DHT22;310;48.490;9.200;2022-12-19T14:44:12;7.60;49.40
652;DHT22;310;48.490;9.200;2022-12-19T14:46:38;8.00;48.70
652;DHT22;310;48.490;9.200;2022-12-19T14:49:23;8.40;46.30
652;DHT22;310;48.490;9.200;2022-12-19T14:51:49;8.80;44.90
652;DHT22;310;48.490;9.200;2022-12-19T14:54:18;8.80;44.20
652;DHT22;310;48.490;9.200;2022-12-19T15:04:46;8.60;44.40
652;DHT22;310;48.490;9.200;2022-12-19T15:07:24;8.90;42.70
652;DHT22;310;48.490;9.200;2022-12-19T15:12:30;8.80;43.70
652;DHT22;310;48.490;9.200;2022-12-19T15:15:36;8.30;43.70
652;DHT22;310;48.490;9.200;2022-12-19T15:18:12;8.20;43.90
652;DHT22;310;48.490;9.200;2022-12-19T15:20:40;7.80;45.30
652;DHT22;310;48.490;9.200;2022-12-19T15:23:08;7.70;45.70
652;DHT22;310;48.490;9.200;2022-12-19T15:25:34;7.70;46.00
652;DHT22;310;48.490;9.200;2022-12-19T15:27:59;7.70;45.60
652;DHT22;310;48.490;9.200;2022-12-19T15:30:26;7.70;45.40
652;DHT22;310;48.490;9.200;2022-12-19T15:32:55;6.80;51.50
652;DHT22;310;48.490;9.200;2022-12-19T15:35:20;7.20;49.30
652;DHT22;310;48.490;9.200;2022-12-19T15:37:46;7.90;47.80
652;DHT22;310;48.490;9.200;2022-12-19T15:40:14;7.80;45.10
652;DHT22;310;48.490;9.200;2022-12-19T15:42:41;7.60;46.30
652;DHT22;310;48.490;9.200;2022-12-19T15:45:15;7.80;45.50
652;DHT22;310;48.490;9.200;2022-12-19T15:47:41;8.00;44.80
652;DHT22;310;48.490;9.200;2022-12-19T15:50:28;8.10;44.80
652;DHT22;310;48.490;9.200;2022-12-19T15:52:59;8.20;44.90
652;DHT22;310;48.490;9.200;2022-12-19T15:55:28;7.40;47.30
652;DHT22;310;48.490;9.200;2022-12-19T15:57:57;7.20;48.70
652;DHT22;310;48.490;9.200;2022-12-19T16:00:30;7.50;47.40
652;DHT22;310;48.490;9.200;2022-12-19T16:02:57;7.80;46.10
652;DHT22;310;48.490;9.200;2022-12-19T16:05:23;7.70;45.70
652;DHT22;310;48.490;9.200;2022-12-19T16:07:49;7.60;45.30
652;DHT22;310;48.490;9.200;2022-12-19T16:10:16;6.60;51.40
652;DHT22;310;48.490;9.200;2022-12-19T16:12:48;6.70;52.20
652;DHT22;310;48.490;9.200;2022-12-19T16:17:51;7.30;47.20
652;DHT22;310;48.490;9.200;2022-12-19T16:20:36;7.20;47.70
652;DHT22;310;48.490;9.200;2022-12-19T16:23:02;7.20;48.10
652;DHT22;310;48.490;9.200;2022-12-19T16:25:38;7.40;46.70
652;DHT22;310;48.490;9.200;2022-12-19T16:28:06;7.60;46.20
652;DHT22;310;48.490;9.200;2022-12-19T16:30:33;7.70;44.80
652;DHT22;310;48.490;9.200;2022-12-19T16:32:59;7.90;44.10
652;DHT22;310;48.490;9.200;2022-12-19T16:35:27;8.00;43.90
652;DHT22;310;48.490;9.200;2022-12-19T16:37:53;7.90;43.70
652;DHT22;310;48.490;9.200;2022-12-19T16:40:24;7.60;44.00
652;DHT22;310;48.490;9.200;2022-12-19T16:43:02;7.40;43.90
652;DHT22;310;48.490;9.200;2022-12-19T16:45:31;7.20;45.20
652;DHT22;310;48.490;9.200;2022-12-19T16:47:57;6.90;46.90
652;DHT22;310;48.490;9.200;2022-12-19T16:50:24;6.70;48.20
652;DHT22;310;48.490;9.200;2022-12-19T16:52:51;7.00;47.00
652;DHT22;310;48.490;9.200;2022-12-19T16:55:17;7.20;45.90
652;DHT22;310;48.490;9.200;2022-12-19T16:57:44;6.90;46.90
652;DHT22;310;48.490;9.200;2022-12-19T17:00:13;6.10;52.00
652;DHT22;310;48.490;9.200;2022-12-19T17:03:05;5.90;54.70
652;DHT22;310;48.490;9.200;2022-12-19T17:05:32;6.40;52.30
652;DHT22;310;48.490;9.200;2022-12-19T17:07:58;6.70;50.10
652;DHT22;310;48.490;9.200;2022-12-19T17:10:31;6.60;50.40
652;DHT22;310;48.490;9.200;2022-12-19T17:12:58;6.90;48.30
652;DHT22;310;48.490;9.200;2022-12-19T17:15:29;6.90;47.80
652;DHT22;310;48.490;9.200;2022-12-19T17:17:57;7.20;46.80
652;DHT22;310;48.490;9.200;2022-12-19T17:20:26;7.10;46.10
652;DHT22;310;48.490;9.200;2022-12-19T17:22:53;7.00;45.80
652;DHT22;310;48.490;9.200;2022-12-19T17:25:25;7.00;45.90
652;DHT22;310;48.490;9.200;2022-12-19T17:27:51;7.10;46.40
652;DHT22;310;48.490;9.200;2022-12-19T17:30:18;7.30;46.00
652;DHT22;310;48.490;9.200;2022-12-19T17:32:45;7.50;45.20
652;DHT22;310;48.490;9.200;2022-12-19T17:35:20;7.00;44.50
652;DHT22;310;48.490;9.200;2022-12-19T17:37:50;7.00;45.90
652;DHT22;310;48.490;9.200;2022-12-19T17:40:20;7.10;45.80
652;DHT22;310;48.490;9.200;2022-12-19T17:42:46;7.30;45.50
652;DHT22;310;48.490;9.200;2022-12-19T17:45:12;7.20;45.30
652;DHT22;310;48.490;9.200;2022-12-19T17:47:38;6.80;46.80
652;DHT22;310;48.490;9.200;2022-12-19T17:50:06;6.20;50.50
652;DHT22;310;48.490;9.200;2022-12-19T17:52:34;6.30;50.90
652;DHT22;310;48.490;9.200;2022-12-19T17:55:19;6.40;49.80
652;DHT22;310;48.490;9.200;2022-12-19T17:57:45;6.60;48.80
652;DHT22;310;48.490;9.200;2022-12-19T18:00:11;6.80;47.50
652;DHT22;310;48.490;9.200;2022-12-19T18:02:37;6.50;49.40
652;DHT22;310;48.490;9.200;2022-12-19T18:05:03;6.50;49.50
652;DHT22;310;48.490;9.200;2022-12-19T18:07:28;6.80;47.90
652;DHT22;310;48.490;9.200;2022-12-19T18:09:54;6.70;48.90
652;DHT22;310;48.490;9.200;2022-12-19T18:12:20;6.90;47.30
652;DHT22;310;48.490;9.200;2022-12-19T18:14:45;7.00;46.90
652;DHT22;310;48.490;9.200;2022-12-19T18:17:12;6.90;46.90
652;DHT22;310;48.490;9.200;2022-12-19T18:19:40;7.00;46.20
652;DHT22;310;48.490;9.200;2022-12-19T18:22:11;7.10;45.60
652;DHT22;310;48.490;9.200;2022-12-19T18:24:37;7.00;45.80
652;DHT22;310;48.490;9.200;2022-12-19T18:27:02;7.20;45.90
652;DHT22;310;48.490;9.200;2022-12-19T18:29:28;7.20;45.20
652;DHT22;310;48.490;9.200;2022-12-19T18:31:54;7.00;47.00
652;DHT22;310;48.490;9.200;2022-12-19T18:34:22;7.00;47.00
652;DHT22;310;48.490;9.200;2022-12-19T18:36:48;6.90;46.90
652;DHT22;310;48.490;9.200;2022-12-19T18:39:26;7.20;48.00
652;DHT22;310;48.490;9.200;2022-12-19T18:41:53;6.80;46.80
652;DHT22;310;48.490;9.200;2022-12-19T18:44:19;6.90;46.90
652;DHT22;310;48.490;9.200;2022-12-19T18:46:46;6.90;46.90
652;DHT22;310;48.490;9.200;2022-12-19T18:49:14;6.90;46.90
652;DHT22;310;48.490;9.200;2022-12-19T18:51:40;6.80;47.30
652;DHT22;310;48.490;9.200;2022-12-19T18:54:21;7.00;47.70
652;DHT22;310;48.490;9.200;2022-12-19T18:56:47;7.10;48.50
652;DHT22;310;48.490;9.200;2022-12-19T18:59:13;7.20;47.80
652;DHT22;310;48.490;9.200;2022-12-19T19:01:42;7.20;47.10
652;DHT22;310;48.490;9.200;2022-12-19T19:04:08;7.00;47.80
652;DHT22;310;48.490;9.200;2022-12-19T19:06:36;7.10;47.10
652;DHT22;310;48.490;9.200;2022-12-19T19:09:02;7.20;47.20
652;DHT22;310;48.490;9.200;2022-12-19T19:11:27;7.10;47.10
652;DHT22;310;48.490;9.200;2022-12-19T19:13:54;7.20;47.40
652;DHT22;310;48.490;9.200;2022-12-19T19:16:26;6.80;48.70
652;DHT22;310;48.490;9.200;2022-12-19T19:18:56;7.00;49.70
652;DHT22;310;48.490;9.200;2022-12-19T19:21:29;6.80;48.40
652;DHT22;310;48.490;9.200;2022-12-19T19:24:04;7.00;48.20
652;DHT22;310;48.490;9.200;2022-12-19T19:26:31;7.10;47.10
652;DHT22;310;48.490;9.200;2022-12-19T19:28:57;7.00;47.00
652;DHT22;310;48.490;9.200;2022-12-19T19:31:24;6.70;47.90